Share

Fernando De Noronha, Brazil

Fernando De Noronha (SBFN) Elev 184 ft | 3.85 °S, 32.42 °W | Change Station

Current weather conditions updated 1 minute ago

Mostly Cloudy
Mostly Cloudy
77 °F
Feels Like 77 °F
N
2
Wind Variable Wind from ESE
Sunrise 6:08 AM
Sunset 6:09 PM
Moon Waning Gibbous

Tomorrow is forecast to be nearly the same temperature as today. Showers and thunderstorms.

Pressure 29.89 in
Visibility 6.2 miles
Clouds Few 1900 ft
Mostly Cloudy 2500 ft
Dew Point 77 °F
Humidity 100%
Rainfall 0.00 in
Snow Depth Not available.
UV 0 out of 16
Pollen Not available.
Air Quality Not available.
Flu Activity Not available.
METAR SBFN 172200Z 11002KT 9999 FEW019 BKN025 25/25 Q1012

More Conditions Fewer Conditions

Pressure 29.89 in
Visibility 6.2 miles
Clouds Few 1900 ft
Mostly Cloudy 2500 ft
Dew Point 77 °F
Humidity 100%
Rainfall 0.00 in
Snow Depth Not available.
UV 0 out of 16
Pollen Not available.
Air Quality Not available.
Flu Activity Not available.
METAR SBFN 172200Z 11002KT 9999 FEW019 BKN025 25/25 Q1012

More Conditions Fewer Conditions

10-Day Forecast

Almanac

Astronomy

Apr. 17, 2014 Rise Set
Actual Time 6:08 AM FNT 6:09 PM FNT
Civil Twilight 5:47 AM FNT 6:30 PM FNT
Nautical Twilight 5:23 AM FNT 6:55 PM FNT
Astronomical Twilight 4:58 AM FNT 7:19 PM FNT
Moon 8:16 PM FNT 7:57 AM FNT
Length of Visible Light 12h 43m
Length of Day
12h 00m
Tomorrow will be 0m 11s shorter.
Waning Gibbous, 92% of the Moon is Illuminated
Today
Waning Gibbous
Apr 22
Last Quarter
Apr 29
New
May 6
First Quarter
May 14
Full

Today's Extremes

Country Highs Country Lows

Community

  • Morning Light
    Morning Light
  • New Day
    New Day
  • Lake Michigan Sunrise
    Lake Michigan Sunrise
  • sunset from izmir, narlıdere
    sunset from izmir, narlıdere
  • oregon cherry
    oregon cherry

WunderPhotos

Upload Photos

1,702,154 photos uploaded!

Nearby

Snow Depth

Not available.

Coastal Water Temperatures

Place Temperature
No Stations Reporting

Earthquake Activity

City Distance Mag. Time & Date
No recent earthquake activity has been reported nearby.
Minimum magnitude displayed is 2.5.

Nearby Weather Stations

There are no personal weather stations in this area.

What do you think?

We're not finished. Please let us know what you like, what you don't like, and what you are still missing.